createdAt,value
2024-05-09T00:00:15.557Z,676.00
2024-05-09T00:01:10.951Z,676.00
2024-05-09T00:02:10.041Z,669.00
2024-05-09T00:03:11.410Z,663.00
2024-05-09T00:04:09.966Z,658.00
2024-05-09T00:05:10.060Z,656.00
2024-05-09T00:06:10.211Z,653.00
2024-05-09T00:07:09.931Z,651.00
2024-05-09T00:08:10.298Z,644.00
2024-05-09T00:09:09.929Z,646.00
2024-05-09T00:10:18.235Z,646.00
2024-05-09T00:12:41.501Z,646.00
2024-05-09T00:13:10.620Z,648.00
2024-05-09T00:14:10.027Z,656.00
2024-05-09T00:15:09.944Z,665.00
2024-05-09T00:16:09.953Z,677.00
2024-05-09T00:17:10.037Z,692.00
2024-05-09T00:18:10.144Z,685.00
2024-05-09T00:19:10.273Z,665.00
2024-05-09T00:20:17.499Z,660.00
2024-05-09T00:21:11.108Z,660.00
2024-05-09T00:22:09.971Z,656.00
2024-05-09T00:23:10.068Z,649.00
2024-05-09T00:24:09.983Z,645.00
2024-05-09T00:25:09.983Z,643.00
2024-05-09T00:26:10.063Z,642.00
2024-05-09T00:27:13.153Z,638.00
2024-05-09T00:28:09.977Z,641.00
2024-05-09T00:29:10.049Z,633.00
2024-05-09T00:30:14.563Z,633.00
2024-05-09T00:31:11.003Z,633.00
2024-05-09T00:32:10.080Z,633.00
2024-05-09T00:33:11.184Z,634.00
2024-05-09T00:34:10.269Z,631.00
2024-05-09T00:35:10.029Z,631.00
2024-05-09T00:36:10.039Z,627.00
2024-05-09T00:37:10.007Z,625.00
2024-05-09T00:38:10.055Z,624.00
2024-05-09T00:39:10.023Z,623.00
2024-05-09T00:40:41.961Z,619.00
2024-05-09T00:41:10.098Z,620.00
2024-05-09T00:42:10.041Z,624.00
2024-05-09T00:43:10.372Z,629.00
2024-05-09T00:44:10.073Z,634.00
2024-05-09T00:45:10.042Z,638.00
2024-05-09T00:46:10.049Z,632.00
2024-05-09T00:47:10.152Z,633.00
2024-05-09T00:48:44.764Z,600.00
2024-05-09T00:49:44.821Z,600.00
2024-05-09T00:50:44.844Z,600.00
2024-05-09T00:51:44.780Z,600.00
2024-05-09T00:52:44.845Z,600.00
2024-05-09T00:53:44.927Z,601.00
2024-05-09T00:54:44.869Z,603.00
2024-05-09T00:55:45.068Z,600.00
2024-05-09T00:56:44.980Z,603.00
2024-05-09T00:57:45.006Z,602.00
2024-05-09T00:58:45.082Z,602.00
2024-05-09T00:59:45.129Z,602.00
2024-05-09T01:00:45.327Z,602.00
2024-05-09T01:01:45.372Z,600.00
2024-05-09T01:02:45.425Z,600.00
2024-05-09T01:03:46.624Z,603.00
2024-05-09T01:04:45.694Z,603.00
2024-05-09T01:05:45.675Z,601.00
2024-05-09T01:06:45.649Z,603.00
2024-05-09T01:07:45.679Z,601.00
2024-05-09T01:08:45.722Z,602.00
2024-05-09T01:09:45.721Z,603.00
2024-05-09T01:10:47.922Z,601.00
2024-05-09T01:11:45.895Z,603.00
2024-05-09T01:12:45.743Z,600.00
2024-05-09T01:13:45.744Z,600.00
2024-05-09T01:14:45.776Z,604.00
2024-05-09T01:15:45.769Z,603.00
2024-05-09T01:16:45.822Z,606.00
2024-05-09T01:17:45.936Z,605.00
2024-05-09T01:18:45.880Z,602.00
2024-05-09T01:19:45.871Z,605.00
2024-05-09T01:20:45.960Z,604.00
2024-05-09T01:21:45.746Z,603.00
2024-05-09T01:22:45.844Z,605.00
2024-05-09T01:23:45.827Z,607.00
2024-05-09T01:24:45.757Z,604.00
2024-05-09T01:25:46.514Z,605.00
2024-05-09T01:26:45.778Z,607.00
2024-05-09T01:27:45.762Z,605.00
2024-05-09T01:28:45.768Z,603.00
2024-05-09T01:29:45.758Z,603.00
2024-05-09T01:30:45.766Z,602.00
2024-05-09T01:31:45.873Z,602.00
2024-05-09T01:32:45.857Z,603.00
2024-05-09T01:33:45.952Z,602.00
2024-05-09T01:34:45.837Z,609.00
2024-05-09T01:35:45.779Z,607.00
2024-05-09T01:36:45.799Z,607.00
2024-05-09T01:37:45.812Z,607.00
2024-05-09T01:38:45.813Z,604.00
2024-05-09T01:39:45.778Z,603.00
2024-05-09T01:40:46.027Z,605.00
2024-05-09T01:41:45.788Z,607.00
2024-05-09T01:42:45.783Z,605.00
2024-05-09T01:43:45.811Z,607.00
2024-05-09T01:44:45.788Z,607.00
2024-05-09T01:45:45.856Z,606.00
2024-05-09T01:46:45.971Z,605.00
2024-05-09T01:47:46.280Z,605.00
2024-05-09T01:48:46.140Z,604.00
2024-05-09T01:53:26.072Z,605.00
2024-05-09T01:55:32.174Z,605.00
2024-05-09T01:56:03.718Z,611.00
2024-05-09T01:57:03.693Z,640.00
2024-05-09T01:58:03.695Z,689.00
2024-05-09T01:59:03.727Z,784.00
2024-05-09T02:00:03.869Z,879.00
2024-05-09T02:01:03.741Z,889.00
2024-05-09T02:02:03.846Z,819.00
2024-05-09T02:03:03.846Z,775.00
2024-05-09T02:04:03.898Z,740.00
2024-05-09T02:05:03.815Z,709.00
2024-05-09T02:06:03.892Z,690.00
2024-05-09T02:07:03.734Z,669.00
2024-05-09T02:08:03.883Z,660.00
2024-05-09T02:09:03.725Z,655.00
2024-05-09T02:10:08.541Z,648.00
2024-05-09T02:11:04.857Z,648.00
2024-05-09T02:12:08.927Z,646.00
2024-05-09T02:13:03.762Z,648.00
2024-05-09T02:14:03.809Z,644.00
2024-05-09T02:15:03.756Z,637.00
2024-05-09T02:16:03.777Z,635.00
2024-05-09T02:17:03.873Z,632.00
2024-05-09T02:18:04.107Z,631.00
2024-05-09T02:19:04.120Z,627.00
2024-05-09T02:20:06.005Z,628.00
2024-05-09T02:21:04.192Z,626.00
2024-05-09T02:22:04.039Z,622.00
2024-05-09T02:23:04.886Z,622.00
2024-05-09T02:24:04.159Z,618.00
2024-05-09T02:25:04.212Z,619.00
2024-05-09T02:26:04.236Z,618.00
2024-05-09T02:27:04.313Z,614.00
2024-05-09T02:28:04.397Z,618.00
2024-05-09T02:29:04.493Z,615.00
2024-05-09T02:30:09.902Z,614.00
2024-05-09T02:31:05.568Z,614.00
2024-05-09T02:32:04.622Z,614.00
2024-05-09T02:33:04.912Z,610.00
2024-05-09T02:34:04.880Z,616.00
2024-05-09T02:35:04.628Z,612.00
2024-05-09T02:36:04.604Z,609.00
2024-05-09T02:37:04.594Z,608.00
2024-05-09T02:38:04.698Z,608.00
2024-05-09T02:39:04.607Z,606.00
2024-05-09T02:40:07.117Z,609.00
2024-05-09T02:41:04.671Z,609.00
2024-05-09T02:42:04.602Z,609.00
2024-05-09T02:43:04.649Z,608.00
2024-05-09T02:44:04.661Z,608.00
2024-05-09T02:45:04.607Z,608.00
2024-05-09T02:46:04.629Z,607.00
2024-05-09T02:47:04.685Z,606.00
2024-05-09T02:48:04.807Z,606.00
2024-05-09T02:49:04.696Z,604.00
2024-05-09T02:50:07.750Z,603.00
2024-05-09T02:51:04.801Z,604.00
2024-05-09T02:52:04.662Z,604.00
2024-05-09T02:53:04.707Z,604.00
2024-05-09T02:54:04.629Z,604.00
2024-05-09T02:55:04.630Z,606.00
2024-05-09T02:56:04.667Z,602.00
2024-05-09T02:57:04.642Z,603.00
2024-05-09T02:58:04.640Z,605.00
2024-05-09T02:59:04.690Z,608.00
2024-05-09T03:00:06.138Z,603.00
2024-05-09T03:01:04.691Z,603.00
2024-05-09T03:02:04.733Z,604.00
2024-05-09T03:03:04.817Z,604.00
2024-05-09T03:04:04.780Z,599.00
2024-05-09T03:13:07.885Z,603.00
2024-05-09T03:13:40.745Z,613.00
2024-05-09T03:14:40.778Z,657.00
2024-05-09T03:15:40.757Z,783.00
2024-05-09T03:16:40.787Z,920.00
2024-05-09T03:17:40.925Z,1048.00
2024-05-09T03:18:40.857Z,1062.00
2024-05-09T03:19:40.760Z,977.00
2024-05-09T03:20:40.915Z,909.00
2024-05-09T03:21:40.777Z,853.00
2024-05-09T03:22:40.787Z,814.00
2024-05-09T03:23:40.837Z,782.00
2024-05-09T03:24:40.782Z,746.00
2024-05-09T03:25:40.804Z,723.00
2024-05-09T03:26:40.804Z,695.00
2024-05-09T03:27:40.804Z,678.00
2024-05-09T03:28:40.789Z,669.00
2024-05-09T03:29:40.794Z,662.00
2024-05-09T03:30:42.967Z,655.00
2024-05-09T03:31:41.230Z,653.00
2024-05-09T03:32:41.207Z,648.00
2024-05-09T03:33:41.192Z,644.00
2024-05-09T03:34:41.133Z,637.00
2024-05-09T03:35:41.239Z,638.00
2024-05-09T03:36:41.186Z,634.00
2024-05-09T03:37:41.217Z,630.00
2024-05-09T03:38:41.321Z,630.00
2024-05-09T03:39:41.288Z,626.00
2024-05-09T03:40:41.313Z,626.00
2024-05-09T03:41:41.392Z,624.00
2024-05-09T03:42:41.370Z,621.00
2024-05-09T03:43:41.410Z,617.00
2024-05-09T03:44:41.491Z,617.00
2024-05-09T03:45:41.534Z,617.00
2024-05-09T03:46:41.628Z,616.00
2024-05-09T03:47:41.998Z,618.00
2024-05-09T03:51:19.280Z,615.00
2024-05-09T03:51:50.538Z,619.00
2024-05-09T03:52:50.549Z,637.00
2024-05-09T03:53:50.537Z,658.00
2024-05-09T03:54:50.601Z,691.00
2024-05-09T03:55:50.664Z,731.00
2024-05-09T03:56:50.544Z,737.00
2024-05-09T03:57:50.534Z,696.00
2024-05-09T03:58:50.584Z,673.00
2024-05-09T03:59:50.546Z,658.00
2024-05-09T04:00:50.614Z,649.00
2024-05-09T04:01:50.638Z,645.00
2024-05-09T04:02:50.630Z,638.00
2024-05-09T04:03:50.640Z,633.00
2024-05-09T04:04:50.735Z,634.00
2024-05-09T04:05:50.595Z,628.00
2024-05-09T04:06:50.553Z,625.00
2024-05-09T04:07:50.621Z,622.00
2024-05-09T04:08:50.555Z,621.00
2024-05-09T04:09:50.569Z,625.00
2024-05-09T04:10:50.635Z,620.00
2024-05-09T04:11:50.697Z,616.00
2024-05-09T04:12:50.675Z,610.00
2024-05-09T04:13:50.742Z,614.00
2024-05-09T04:14:50.750Z,613.00
2024-05-09T04:15:50.781Z,612.00
2024-05-09T04:16:50.855Z,609.00
2024-05-09T04:17:51.079Z,608.00
2024-05-09T04:18:51.043Z,607.00
2024-05-09T04:19:51.102Z,606.00
2024-05-09T04:20:51.195Z,606.00
2024-05-09T04:21:51.265Z,603.00
2024-05-09T04:22:51.395Z,604.00
2024-05-09T04:23:51.343Z,600.00
2024-05-09T04:30:43.268Z,603.00
2024-05-09T04:34:28.913Z,600.00
2024-05-09T04:35:28.854Z,600.00
2024-05-09T04:36:28.830Z,600.00
2024-05-09T04:37:28.823Z,600.00
2024-05-09T04:38:28.899Z,600.00
2024-05-09T04:39:28.823Z,596.00
2024-05-09T04:40:33.943Z,593.00
2024-05-09T04:41:29.964Z,580.00
2024-05-09T04:42:28.821Z,550.00
2024-05-09T04:43:28.823Z,531.00
2024-05-09T04:44:28.945Z,512.00
2024-05-09T04:45:28.863Z,501.00
2024-05-09T04:46:28.820Z,526.00
2024-05-09T04:47:29.014Z,551.00
2024-05-09T04:48:29.097Z,581.00
2024-05-09T04:49:28.964Z,602.00
2024-05-09T04:56:21.925Z,602.00
2024-05-09T04:56:50.753Z,608.00
2024-05-09T04:57:50.790Z,640.00
2024-05-09T04:58:50.844Z,698.00
2024-05-09T04:59:50.780Z,783.00
2024-05-09T05:00:50.823Z,859.00
2024-05-09T05:01:50.876Z,858.00
2024-05-09T05:02:51.016Z,785.00
2024-05-09T05:03:50.836Z,717.00
2024-05-09T05:04:50.895Z,674.00
2024-05-09T05:05:50.834Z,652.00
2024-05-09T05:06:50.784Z,640.00
2024-05-09T05:07:50.899Z,631.00
2024-05-09T05:08:50.798Z,621.00
2024-05-09T05:09:50.796Z,612.00
2024-05-09T05:10:50.908Z,609.00
2024-05-09T05:11:50.939Z,600.00
2024-05-09T05:12:50.794Z,603.00
2024-05-09T05:13:50.839Z,602.00
2024-05-09T05:14:50.791Z,600.00
2024-05-09T05:15:50.852Z,601.00
2024-05-09T05:16:50.857Z,600.00
2024-05-09T05:17:51.076Z,601.00
2024-05-09T05:18:51.039Z,602.00
2024-05-09T05:19:51.204Z,601.00
2024-05-09T05:20:51.536Z,600.00
2024-05-09T05:21:51.239Z,601.00
2024-05-09T05:22:51.367Z,600.00
2024-05-09T05:23:51.383Z,600.00
2024-05-09T05:24:51.469Z,602.00
2024-05-09T05:25:51.568Z,600.00
2024-05-09T05:26:51.585Z,606.00
2024-05-09T05:27:51.668Z,600.00
2024-05-09T05:28:51.786Z,601.00
2024-05-09T05:29:51.823Z,604.00
2024-05-09T05:30:51.938Z,601.00
2024-05-09T05:31:52.038Z,600.00
2024-05-09T05:32:52.221Z,601.00
2024-05-09T05:33:52.222Z,600.00
2024-05-09T05:34:52.250Z,600.00
2024-05-09T05:35:52.306Z,604.00
2024-05-09T05:36:52.395Z,601.00
2024-05-09T05:37:52.458Z,602.00
2024-05-09T05:38:52.541Z,605.00
2024-05-09T05:39:52.607Z,600.00
2024-05-09T05:40:52.700Z,601.00
2024-05-09T05:41:52.747Z,602.00
2024-05-09T05:42:52.846Z,605.00
2024-05-09T05:43:52.978Z,605.00
2024-05-09T05:44:52.993Z,600.00
2024-05-09T05:45:53.068Z,604.00
2024-05-09T05:46:53.187Z,602.00
2024-05-09T05:47:53.491Z,603.00
2024-05-09T05:48:53.428Z,601.00
2024-05-09T05:49:53.403Z,604.00
2024-05-09T05:50:53.510Z,602.00
2024-05-09T05:51:53.520Z,604.00
2024-05-09T05:52:53.647Z,602.00
2024-05-09T05:53:53.681Z,602.00
2024-05-09T05:54:53.754Z,601.00
2024-05-09T05:55:53.850Z,600.00
2024-05-09T05:56:53.927Z,604.00
2024-05-09T05:57:54.001Z,603.00
2024-05-09T05:58:54.099Z,600.00
2024-05-09T06:04:47.228Z,603.00
2024-05-09T06:05:19.210Z,610.00
2024-05-09T06:06:19.184Z,640.00
2024-05-09T06:07:19.185Z,690.00
2024-05-09T06:08:19.306Z,786.00
2024-05-09T06:09:19.198Z,866.00
2024-05-09T06:12:56.266Z,869.00
2024-05-09T06:13:27.942Z,878.00
2024-05-09T06:18:08.383Z,869.00
2024-05-09T06:18:41.170Z,884.00
2024-05-09T06:19:41.148Z,951.00
2024-05-09T06:20:41.098Z,1022.00
2024-05-09T06:21:41.086Z,1061.00
2024-05-09T06:22:41.076Z,1079.00
2024-05-09T06:23:41.096Z,1031.00
2024-05-09T06:24:41.061Z,952.00
2024-05-09T06:25:41.056Z,893.00
2024-05-09T06:26:41.138Z,840.00
2024-05-09T06:27:41.073Z,794.00
2024-05-09T06:30:25.796Z,764.00
2024-05-09T06:30:46.456Z,767.00
2024-05-09T06:31:45.476Z,792.00
2024-05-09T06:32:45.572Z,814.00
2024-05-09T06:38:30.059Z,764.00
2024-05-09T06:39:02.940Z,780.00
2024-05-09T06:40:03.161Z,853.00
2024-05-09T06:41:03.019Z,931.00
2024-05-09T06:42:02.953Z,994.00
2024-05-09T06:43:02.998Z,1039.00
2024-05-09T06:44:03.007Z,1013.00
2024-05-09T06:45:02.980Z,931.00
2024-05-09T06:46:02.958Z,868.00
2024-05-09T06:47:03.078Z,827.00
2024-05-09T06:48:03.149Z,797.00
2024-05-09T06:49:03.211Z,755.00
2024-05-09T06:50:03.727Z,735.00
2024-05-09T06:51:03.031Z,716.00
2024-05-09T06:52:02.976Z,689.00
2024-05-09T06:53:03.056Z,664.00
2024-05-09T06:54:02.975Z,664.00
2024-05-09T06:55:02.978Z,656.00
2024-05-09T06:56:02.995Z,647.00
2024-05-09T06:57:02.984Z,641.00
2024-05-09T06:58:02.995Z,642.00
2024-05-09T06:59:03.022Z,639.00
2024-05-09T07:00:03.023Z,631.00
2024-05-09T07:01:03.047Z,630.00
2024-05-09T07:02:03.013Z,626.00
2024-05-09T07:03:05.665Z,621.00
2024-05-09T07:04:03.118Z,622.00
2024-05-09T07:05:03.090Z,620.00
2024-05-09T07:06:03.199Z,616.00
2024-05-09T07:07:03.001Z,613.00
2024-05-09T07:08:03.013Z,614.00
2024-05-09T07:09:03.010Z,610.00
2024-05-09T07:18:10.090Z,609.00
2024-05-09T07:30:56.688Z,609.00
2024-05-09T07:31:29.664Z,624.00
2024-05-09T07:32:29.765Z,752.00
2024-05-09T07:33:29.949Z,997.00
2024-05-09T07:34:29.791Z,1246.00
2024-05-09T07:35:30.033Z,1491.00
2024-05-09T07:36:29.718Z,1510.00
2024-05-09T07:37:29.725Z,1335.00
2024-05-09T07:38:29.786Z,1208.00
2024-05-09T07:39:29.724Z,1112.00
2024-05-09T07:48:49.020Z,1037.00
2024-05-09T07:53:13.765Z,1037.00
2024-05-09T07:53:29.203Z,1053.00
2024-05-09T07:53:36.981Z,1084.00
2024-05-09T07:57:47.850Z,1037.00
2024-05-09T07:58:22.267Z,1061.00
2024-05-09T08:03:04.336Z,1037.00
2024-05-09T08:03:35.493Z,1058.00
2024-05-09T08:13:07.669Z,1037.00
2024-05-09T08:13:40.459Z,1066.00
2024-05-09T08:14:40.499Z,1205.00
2024-05-09T08:15:40.631Z,1360.00
2024-05-09T08:16:40.503Z,1499.00
2024-05-09T08:17:40.620Z,1591.00
2024-05-09T08:18:40.753Z,1527.00
2024-05-09T08:19:40.558Z,1366.00
2024-05-09T08:20:40.511Z,1248.00
2024-05-09T08:21:40.574Z,1149.00
2024-05-09T08:22:40.507Z,1076.00
2024-05-09T08:23:40.507Z,1012.00
2024-05-09T08:24:40.600Z,963.00
2024-05-09T08:25:40.511Z,912.00
2024-05-09T08:26:40.514Z,861.00
2024-05-09T08:27:40.577Z,826.00
2024-05-09T08:28:40.534Z,800.00
2024-05-09T08:29:40.587Z,764.00
2024-05-09T08:30:40.653Z,736.00
2024-05-09T08:31:40.588Z,725.00
2024-05-09T08:32:40.633Z,691.00
2024-05-09T08:33:40.620Z,677.00
2024-05-09T08:34:40.605Z,664.00
2024-05-09T08:35:40.543Z,656.00
2024-05-09T08:36:40.573Z,650.00
2024-05-09T08:37:40.870Z,641.00
2024-05-09T08:38:40.528Z,639.00
2024-05-09T08:39:40.581Z,633.00
2024-05-09T08:40:40.579Z,623.00
2024-05-09T08:41:40.557Z,623.00
2024-05-09T08:42:40.555Z,623.00
2024-05-09T08:44:40.545Z,616.00
2024-05-09T08:45:40.562Z,610.00
2024-05-09T08:46:40.561Z,609.00
2024-05-09T08:47:40.666Z,607.00
2024-05-09T08:48:40.682Z,604.00
2024-05-09T08:49:41.561Z,601.00
2024-05-09T08:50:41.028Z,600.00
2024-05-09T08:51:40.804Z,605.00
2024-05-09T08:52:40.879Z,600.00
2024-05-09T08:53:40.969Z,606.00
2024-05-09T08:54:41.142Z,600.00
2024-05-09T08:55:43.417Z,605.00
2024-05-09T08:56:41.135Z,606.00
2024-05-09T08:57:41.175Z,602.00
2024-05-09T08:58:41.145Z,603.00
2024-05-09T08:59:41.155Z,601.00
2024-05-09T09:00:41.299Z,601.00
2024-05-09T09:01:41.497Z,604.00
2024-05-09T09:02:41.292Z,603.00
2024-05-09T09:03:41.396Z,603.00
2024-05-09T09:04:41.237Z,601.00
2024-05-09T09:05:41.274Z,601.00
2024-05-09T09:06:41.182Z,602.00
2024-05-09T09:07:41.167Z,602.00
2024-05-09T09:08:41.196Z,601.00
2024-05-09T09:09:41.198Z,601.00
2024-05-09T09:10:41.283Z,601.00
2024-05-09T09:11:41.223Z,602.00
2024-05-09T09:12:41.228Z,603.00
2024-05-09T09:13:41.256Z,603.00
2024-05-09T09:15:08.208Z,602.00
2024-05-09T09:15:41.208Z,602.00
2024-05-09T09:16:41.161Z,606.00
2024-05-09T09:17:41.262Z,610.00
2024-05-09T09:18:41.387Z,613.00
2024-05-09T09:19:41.217Z,615.00
2024-05-09T09:20:41.224Z,609.00
2024-05-09T09:35:09.637Z,609.00
2024-05-09T09:35:39.239Z,619.00
2024-05-09T09:36:39.231Z,701.00
2024-05-09T09:42:27.859Z,609.00
2024-05-09T09:45:39.281Z,609.00
2024-05-09T09:46:13.008Z,620.00
2024-05-09T09:47:12.231Z,706.00
2024-05-09T09:48:12.420Z,911.00
2024-05-09T09:49:12.397Z,1128.00
2024-05-09T09:50:16.865Z,1343.00
2024-05-09T09:51:13.260Z,620.00
2024-05-09T09:52:12.317Z,651.00
2024-05-09T09:53:12.250Z,735.00
2024-05-09T09:54:12.255Z,854.00
2024-05-09T09:55:12.342Z,977.00
2024-05-09T09:56:12.264Z,942.00
2024-05-09T09:57:16.474Z,895.00
2024-05-09T09:58:14.242Z,871.00
2024-05-09T09:59:12.287Z,838.00
2024-05-09T10:00:17.297Z,801.00
2024-05-09T10:01:13.414Z,783.00
2024-05-09T10:02:12.437Z,750.00
2024-05-09T10:03:12.354Z,723.00
2024-05-09T10:04:12.334Z,705.00
2024-05-09T10:05:12.357Z,680.00
2024-05-09T10:06:12.310Z,671.00
2024-05-09T10:07:12.481Z,658.00
2024-05-09T10:08:12.345Z,652.00
2024-05-09T10:09:12.315Z,647.00
2024-05-09T10:10:16.237Z,644.00
2024-05-09T10:11:12.343Z,642.00
2024-05-09T10:12:12.372Z,640.00
2024-05-09T10:13:12.325Z,634.00
2024-05-09T10:14:12.317Z,631.00
2024-05-09T10:15:12.312Z,626.00
2024-05-09T10:16:12.651Z,623.00
2024-05-09T10:17:12.336Z,618.00
2024-05-09T10:18:12.610Z,618.00
2024-05-09T10:19:12.440Z,615.00
2024-05-09T10:20:21.306Z,615.00
2024-05-09T10:21:13.388Z,615.00
2024-05-09T10:22:12.392Z,614.00
2024-05-09T10:23:44.872Z,613.00
2024-05-09T10:24:12.487Z,616.00
2024-05-09T10:25:39.562Z,619.00
2024-05-09T10:26:12.546Z,616.00
2024-05-09T10:27:12.540Z,621.00
2024-05-09T10:28:16.866Z,625.00
2024-05-09T10:29:12.531Z,616.00
2024-05-09T10:31:12.558Z,620.00
2024-05-09T10:32:12.553Z,621.00
2024-05-09T10:33:17.057Z,616.00
2024-05-09T10:34:12.679Z,615.00
2024-05-09T10:35:12.598Z,615.00
2024-05-09T10:36:12.549Z,609.00
2024-05-09T10:37:12.665Z,603.00
2024-05-09T10:38:12.556Z,600.00
2024-05-09T10:39:12.535Z,601.00
2024-05-09T10:40:20.272Z,599.00
2024-05-09T10:41:13.568Z,600.00
2024-05-09T10:42:12.554Z,600.00
2024-05-09T10:43:17.264Z,601.00
2024-05-09T10:49:01.680Z,599.00
2024-05-09T10:49:30.084Z,604.00
2024-05-09T10:50:34.098Z,632.00
2024-05-09T10:51:30.113Z,609.00
2024-05-09T10:52:30.062Z,633.00
2024-05-09T10:53:30.071Z,661.00
2024-05-09T10:54:30.124Z,730.00
2024-05-09T10:55:30.114Z,791.00
2024-05-09T10:56:30.084Z,753.00
2024-05-09T10:57:30.107Z,706.00
2024-05-09T10:58:42.698Z,679.00
2024-05-09T10:59:30.074Z,681.00
2024-05-09T11:00:35.382Z,678.00
2024-05-09T11:01:31.179Z,671.00
2024-05-09T11:02:30.242Z,654.00
2024-05-09T11:03:30.647Z,644.00
2024-05-09T11:04:30.186Z,635.00
2024-05-09T11:05:30.215Z,631.00
2024-05-09T11:06:30.149Z,626.00
2024-05-09T11:07:30.158Z,620.00
2024-05-09T11:08:30.108Z,615.00
2024-05-09T11:09:30.167Z,613.00
2024-05-09T11:10:33.837Z,611.00
2024-05-09T11:11:30.195Z,611.00
2024-05-09T11:12:30.132Z,611.00
2024-05-09T11:13:30.130Z,605.00
2024-05-09T11:14:30.112Z,605.00
2024-05-09T11:15:30.153Z,603.00
2024-05-09T11:17:10.692Z,600.00
2024-05-09T11:18:10.695Z,600.00
2024-05-09T11:19:10.798Z,600.00
2024-05-09T11:20:16.866Z,600.00
2024-05-09T11:21:11.640Z,600.00
2024-05-09T11:22:10.714Z,600.00
2024-05-09T11:23:10.645Z,600.00
2024-05-09T11:24:11.476Z,600.00
2024-05-09T11:25:10.761Z,600.00
2024-05-09T11:26:10.839Z,602.00
2024-05-09T11:27:10.647Z,600.00
2024-05-09T11:28:10.710Z,600.00
2024-05-09T11:29:10.667Z,600.00
2024-05-09T11:31:11.145Z,604.00
2024-05-09T11:32:10.729Z,601.00
2024-05-09T11:33:15.689Z,603.00
2024-05-09T11:34:10.671Z,603.00
2024-05-09T11:35:10.667Z,603.00
2024-05-09T11:36:10.666Z,603.00
2024-05-09T11:37:10.754Z,601.00
2024-05-09T11:38:10.695Z,602.00
2024-05-09T11:39:10.690Z,602.00
2024-05-09T11:40:13.879Z,600.00
2024-05-09T11:41:11.696Z,600.00
2024-05-09T11:42:10.706Z,600.00
2024-05-09T11:43:10.772Z,600.00
2024-05-09T11:44:10.737Z,602.00
2024-05-09T11:45:10.706Z,601.00
2024-05-09T11:46:10.755Z,600.00
2024-05-09T11:47:10.765Z,601.00
2024-05-09T11:48:10.948Z,602.00
2024-05-09T11:49:10.907Z,601.00
2024-05-09T11:50:16.331Z,604.00
2024-05-09T11:51:11.709Z,604.00
2024-05-09T11:52:10.786Z,604.00
2024-05-09T11:53:10.770Z,604.00
2024-05-09T11:54:10.726Z,604.00
2024-05-09T11:55:10.807Z,604.00
2024-05-09T11:56:10.738Z,604.00
2024-05-09T11:57:10.722Z,603.00
2024-05-09T11:58:10.861Z,600.00
2024-05-09T11:59:10.843Z,601.00
2024-05-09T12:00:14.927Z,601.00
2024-05-09T12:01:12.018Z,601.00
2024-05-09T12:02:11.212Z,602.00
2024-05-09T12:03:10.978Z,603.00
2024-05-09T12:04:11.164Z,601.00
2024-05-09T12:05:11.101Z,603.00
2024-05-09T12:06:10.980Z,602.00
2024-05-09T12:07:13.024Z,601.00
2024-05-09T12:08:21.033Z,602.00
2024-05-09T12:09:10.967Z,603.00
2024-05-09T12:10:14.156Z,604.00
2024-05-09T12:11:12.098Z,603.00
2024-05-09T12:12:10.971Z,604.00
2024-05-09T12:13:11.022Z,605.00
2024-05-09T12:14:10.975Z,605.00
2024-05-09T12:15:10.994Z,606.00
2024-05-09T12:16:11.109Z,605.00
2024-05-09T12:17:11.060Z,604.00
2024-05-09T12:18:11.071Z,605.00
2024-05-09T12:19:11.073Z,603.00
2024-05-09T12:20:17.525Z,603.00
2024-05-09T12:21:12.117Z,603.00
2024-05-09T12:22:11.202Z,603.00
2024-05-09T12:23:16.131Z,603.00
2024-05-09T12:24:12.116Z,603.00
2024-05-09T12:25:11.139Z,603.00
2024-05-09T12:27:45.292Z,603.00
2024-05-09T12:28:24.299Z,605.00
2024-05-09T15:54:03.259Z,600.00
2024-05-09T15:55:03.316Z,600.00
2024-05-09T15:56:03.283Z,600.00
2024-05-09T15:57:03.259Z,600.00
2024-05-09T15:58:04.184Z,600.00
2024-05-09T15:59:03.258Z,598.00
2024-05-09T16:00:05.852Z,601.00
2024-05-09T16:01:03.455Z,582.00
2024-05-09T16:02:03.423Z,561.00
2024-05-09T16:03:03.310Z,544.00
2024-05-09T16:04:03.428Z,527.00
2024-05-09T16:05:03.489Z,516.00
2024-05-09T16:06:03.361Z,537.00
2024-05-09T16:07:03.308Z,561.00
2024-05-09T16:08:03.329Z,592.00
2024-05-09T16:09:03.277Z,599.00
2024-05-09T16:10:06.554Z,603.00
2024-05-09T16:11:03.569Z,603.00
2024-05-09T16:12:03.339Z,598.00
2024-05-09T16:13:04.092Z,601.00
2024-05-09T16:14:03.309Z,604.00
2024-05-09T16:15:03.322Z,601.00
2024-05-09T16:16:03.411Z,603.00
2024-05-09T16:17:03.391Z,603.00
2024-05-09T16:18:03.343Z,604.00
2024-05-09T16:19:03.368Z,601.00
2024-05-09T16:20:06.952Z,601.00
2024-05-09T16:21:04.314Z,602.00
2024-05-09T16:22:03.435Z,602.00
2024-05-09T16:23:03.341Z,604.00
2024-05-09T16:24:03.319Z,607.00
2024-05-09T16:25:03.445Z,610.00
2024-05-09T16:26:03.320Z,611.00
2024-05-09T16:27:03.318Z,612.00
2024-05-09T16:28:05.905Z,609.00
2024-05-09T16:29:04.334Z,609.00
2024-05-09T16:30:07.162Z,609.00
2024-05-09T16:31:04.428Z,609.00
2024-05-09T16:32:03.390Z,610.00
2024-05-09T16:33:04.308Z,609.00
2024-05-09T16:34:03.575Z,607.00
2024-05-09T16:35:03.470Z,605.00
2024-05-09T16:36:03.337Z,604.00
2024-05-09T16:37:03.364Z,603.00
2024-05-09T16:38:03.409Z,602.00
2024-05-09T16:39:03.361Z,600.00
2024-05-09T16:40:04.374Z,602.00
2024-05-09T16:41:03.395Z,602.00
2024-05-09T16:42:03.380Z,601.00
2024-05-09T16:43:03.548Z,601.00
2024-05-09T16:44:03.450Z,601.00
2024-05-09T16:45:03.511Z,601.00
2024-05-09T16:46:03.570Z,600.00
2024-05-09T16:47:03.654Z,601.00
2024-05-09T16:48:03.634Z,601.00
2024-05-09T16:49:03.661Z,601.00
2024-05-09T16:50:04.885Z,600.00
2024-05-09T16:51:03.706Z,603.00
2024-05-09T16:52:03.824Z,604.00
2024-05-09T16:53:04.715Z,601.00
2024-05-09T16:54:03.931Z,601.00
2024-05-09T16:55:04.175Z,603.00
2024-05-09T16:56:03.974Z,602.00
2024-05-09T16:57:04.012Z,601.00
2024-05-09T16:58:04.919Z,603.00
2024-05-09T16:59:04.167Z,602.00
2024-05-09T17:18:28.708Z,600.00
2024-05-09T17:18:59.334Z,616.00
2024-05-09T17:19:59.337Z,739.00
2024-05-09T17:20:59.385Z,997.00
2024-05-09T17:21:59.512Z,1268.00
2024-05-09T17:22:59.482Z,1543.00
2024-05-09T17:23:59.528Z,1558.00
2024-05-09T17:24:59.601Z,1402.00
2024-05-09T17:25:59.587Z,1278.00
2024-05-09T17:26:59.626Z,1172.00
2024-05-09T17:27:59.777Z,1100.00
2024-05-09T17:28:59.807Z,1035.00
2024-05-09T17:29:59.894Z,982.00
2024-05-09T17:30:59.970Z,938.00
2024-05-09T17:32:00.050Z,897.00
2024-05-09T17:33:00.212Z,862.00
2024-05-09T17:34:00.421Z,827.00
2024-05-09T17:35:00.503Z,804.00
2024-05-09T17:36:00.395Z,786.00
2024-05-09T17:37:00.589Z,760.00
2024-05-09T17:38:00.557Z,740.00
2024-05-09T17:39:00.614Z,723.00
2024-05-09T17:40:00.813Z,706.00
2024-05-09T17:41:00.920Z,700.00
2024-05-09T17:42:00.841Z,684.00
2024-05-09T17:43:00.993Z,682.00
2024-05-09T17:44:01.016Z,664.00
2024-05-09T17:45:01.268Z,662.00
2024-05-09T17:46:01.328Z,658.00
2024-05-09T17:49:37.101Z,655.00
2024-05-09T17:50:14.967Z,659.00
2024-05-09T17:51:10.999Z,663.00
2024-05-09T17:52:10.071Z,703.00
2024-05-09T17:53:10.015Z,749.00
2024-05-09T17:54:10.032Z,794.00
2024-05-09T17:55:10.073Z,830.00
2024-05-09T17:56:10.019Z,790.00
2024-05-09T17:57:10.017Z,755.00
2024-05-09T17:58:10.172Z,729.00
2024-05-09T17:59:11.475Z,704.00
2024-05-09T18:00:11.818Z,688.00
2024-05-09T18:01:10.184Z,664.00
2024-05-09T18:08:04.384Z,663.00
2024-05-09T18:08:37.565Z,677.00
2024-05-09T18:09:37.598Z,767.00
2024-05-09T18:10:39.776Z,872.00
2024-05-09T18:17:55.122Z,663.00
2024-05-09T18:22:13.992Z,663.00
2024-05-09T18:22:46.869Z,687.00
2024-05-09T18:23:46.876Z,836.00